Time;durP1;ratioP1;P1;durP2;ratioP2;P2;SDS_P1;SDS_P2;PMS_P1;PMS_P2;Temp;Humidity;BMP_temperature;BMP_pressure;BME280_temperature;BME280_humidity;BME280_pressure;Samples;Min_cycle;Max_cycle;Signal;HPM_P1;HPM_P2
2021/08/07 00:01:02;;;;;;;6.43;1.98;;;;;;;17.52;69.73;99044.19;2195090;40;20118;-76
2021/08/07 00:02:34;;;;;;;4.90;1.67;;;;;;;17.52;69.65;99046.88;2196575;40;20050;-76
2021/08/07 00:04:06;;;;;;;5.28;1.88;;;;;;;17.51;69.60;99040.63;2196967;40;20031;-76
2021/08/07 00:05:38;;;;;;;5.20;1.83;;;;;;;17.51;69.82;99043.31;2189773;40;20338;-77
2021/08/07 00:07:10;;;;;;;5.40;1.90;;;;;;;17.51;69.94;99046.03;2197535;40;20034;-76
2021/08/07 00:08:42;;;;;;;4.55;2.10;;;;;;;17.53;69.81;99041.25;2196777;40;20027;-76
2021/08/07 00:10:14;;;;;;;4.07;1.80;;;;;;;17.53;69.77;99043.94;2199656;40;20027;-76
2021/08/07 00:11:47;;;;;;;4.13;2.25;;;;;;;17.56;69.76;99042.69;2195884;40;20722;-76
2021/08/07 00:13:19;;;;;;;3.92;1.73;;;;;;;17.57;69.46;99047.88;2197854;40;20678;-76
2021/08/07 00:14:51;;;;;;;4.72;1.85;;;;;;;17.61;69.49;99045.59;2197508;40;20035;-76
2021/08/07 00:16:23;;;;;;;3.83;1.63;;;;;;;17.64;69.28;99039.72;2197018;40;20027;-76
2021/08/07 00:17:55;;;;;;;5.35;1.73;;;;;;;17.67;69.12;99038.47;2198429;40;20058;-76
2021/08/07 00:19:26;;;;;;;4.22;1.90;;;;;;;17.70;69.00;99041.59;2197085;40;20411;-77
2021/08/07 00:20:57;;;;;;;7.10;2.10;;;;;;;17.73;68.68;99032.22;2196366;40;20038;-76
2021/08/07 00:22:32;;;;;;;4.75;1.60;;;;;;;17.74;68.58;99033.88;2199429;40;20066;-77
2021/08/07 00:24:04;;;;;;;4.38;1.50;;;;;;;17.73;68.49;99038.44;2195647;40;20069;-78
2021/08/07 00:25:36;;;;;;;7.20;1.65;;;;;;;17.73;68.66;99038.44;2174010;40;20051;-76
2021/08/07 00:27:10;;;;;;;4.85;1.42;;;;;;;17.72;68.35;99035.97;2201203;40;20035;-77
2021/08/07 00:28:42;;;;;;;3.63;1.52;;;;;;;17.72;68.66;99038.66;2200879;40;20037;-77
2021/08/07 00:30:14;;;;;;;5.50;1.77;;;;;;;17.68;68.38;99029.31;2201016;40;20051;-76
2021/08/07 00:31:46;;;;;;;7.60;1.70;;;;;;;17.69;68.52;99017.47;2195954;40;20390;-77
2021/08/07 00:33:17;;;;;;;5.05;1.63;;;;;;;17.71;68.56;99015.38;2196458;40;20045;-76
2021/08/07 00:34:49;;;;;;;4.75;1.65;;;;;;;17.75;68.22;99013.91;2196130;40;20059;-76
2021/08/07 00:36:21;;;;;;;3.65;1.58;;;;;;;17.75;68.16;99014.72;2197034;40;20034;-77
2021/08/07 00:37:52;;;;;;;5.80;1.65;;;;;;;17.74;68.50;99014.97;2198531;40;20035;-76
2021/08/07 00:39:23;;;;;;;4.43;1.27;;;;;;;17.77;68.67;99011.81;2197869;40;20060;-77
2021/08/07 00:40:55;;;;;;;3.20;1.35;;;;;;;17.81;68.14;99012.19;2195628;40;20077;-76
2021/08/07 00:42:28;;;;;;;7.90;1.67;;;;;;;17.83;68.47;99005.53;2198696;40;20042;-76
2021/08/07 00:44:00;;;;;;;4.68;2.03;;;;;;;17.82;68.33;99009.28;2195313;40;20314;-76
2021/08/07 00:45:32;;;;;;;4.95;1.60;;;;;;;17.77;68.26;99007.25;2198178;40;20097;-76
2021/08/07 00:47:04;;;;;;;4.10;1.80;;;;;;;17.73;68.41;99008.72;2195854;40;20038;-77
2021/08/07 00:48:37;;;;;;;4.85;1.60;;;;;;;17.70;68.31;99011.88;2195639;40;20046;-76
2021/08/07 00:50:09;;;;;;;5.28;1.70;;;;;;;17.70;68.45;99008.31;2195489;40;20046;-76
2021/08/07 00:51:41;;;;;;;3.70;1.40;;;;;;;17.66;68.53;98999.00;2197538;40;20291;-77
2021/08/07 00:53:14;;;;;;;4.65;1.40;;;;;;;17.58;68.61;98998.19;2183511;40;20059;-76
2021/08/07 00:54:46;;;;;;;4.10;1.52;;;;;;;17.54;68.77;98996.97;2197548;40;20027;-76
2021/08/07 00:56:17;;;;;;;4.50;1.50;;;;;;;17.51;68.90;98997.41;2196149;40;20035;-77
2021/08/07 00:57:50;;;;;;;5.68;1.65;;;;;;;17.48;68.71;99000.53;2195941;40;20038;-76
2021/08/07 00:59:22;;;;;;;7.20;1.60;;;;;;;17.44;69.08;99002.00;2196458;40;20077;-76
2021/08/07 01:00:54;;;;;;;6.20;1.65;;;;;;;17.42;69.06;98998.69;2196559;40;20039;-76
2021/08/07 01:02:27;;;;;;;3.85;1.48;;;;;;;17.40;69.10;99001.63;2196349;40;20395;-77
2021/08/07 01:03:59;;;;;;;4.75;1.40;;;;;;;17.37;69.47;99001.22;2195183;40;20744;-76
2021/08/07 01:05:37;;;;;;;3.30;1.25;;;;;;;17.34;69.59;99007.03;2196441;40;20035;-77
2021/08/07 01:07:18;;;;;;;4.00;1.58;;;;;;;17.33;69.22;99008.09;2192320;40;20050;-76
2021/08/07 01:09:02;;;;;;;3.60;1.25;;;;;;;17.29;69.36;99011.19;2176735;40;20032;-76
2021/08/07 01:10:40;;;;;;;3.55;1.35;;;;;;;17.26;69.79;99005.41;2193480;40;20035;-76
2021/08/07 01:12:20;;;;;;;4.22;1.38;;;;;;;17.26;69.56;99008.09;2174523;40;20441;-77
2021/08/07 01:13:58;;;;;;;3.75;1.38;;;;;;;17.23;69.79;99005.84;2189833;40;20050;-76
2021/08/07 01:15:32;;;;;;;5.53;1.40;;;;;;;17.23;69.35;99005.84;2195413;40;20027;-76
2021/08/07 01:17:09;;;;;;;3.45;1.30;;;;;;;17.23;69.44;98995.88;2194823;40;20400;-77
2021/08/07 01:18:41;;;;;;;3.80;1.15;;;;;;;17.24;69.69;98996.72;2193246;40;20035;-77
2021/08/07 01:20:16;;;;;;;5.70;1.52;;;;;;;17.20;69.50;98995.47;2185213;40;20039;-76
2021/08/07 01:21:54;;;;;;;3.70;1.20;;;;;;;17.21;69.53;98991.72;2182254;40;20048;-77
2021/08/07 01:23:40;;;;;;;3.83;1.08;;;;;;;17.23;69.24;98995.06;2196259;40;20045;-77
2021/08/07 01:25:16;;;;;;;5.85;1.40;;;;;;;17.20;69.41;98990.88;2179701;40;20104;-77
2021/08/07 01:27:00;;;;;;;4.15;1.60;;;;;;;17.17;69.64;98982.38;2198232;40;20058;-76
2021/08/07 01:28:38;;;;;;;3.72;1.17;;;;;;;17.09;69.77;98984.28;2177464;40;20044;-76
2021/08/07 01:30:13;;;;;;;5.93;1.50;;;;;;;17.02;69.77;98982.63;2192793;40;20046;-76
2021/08/07 01:31:46;;;;;;;4.28;1.48;;;;;;;16.97;70.01;98981.44;2188993;40;20039;-76
2021/08/07 01:33:19;;;;;;;4.78;1.63;;;;;;;16.93;70.01;98982.88;2193417;40;20066;-76
2021/08/07 01:34:52;;;;;;;3.50;1.35;;;;;;;16.90;70.36;98968.94;2194785;40;20050;-76
2021/08/07 01:36:24;;;;;;;3.80;1.33;;;;;;;16.89;70.55;98968.13;2194638;40;20585;-76
2021/08/07 01:37:56;;;;;;;3.83;1.27;;;;;;;16.89;70.11;98978.09;2196147;40;20061;-76
2021/08/07 01:39:28;;;;;;;3.72;1.15;;;;;;;16.84;70.43;98968.78;2195755;40;20035;-76
2021/08/07 01:41:00;;;;;;;3.35;1.33;;;;;;;16.82;70.39;98978.94;2194909;40;20057;-76
2021/08/07 01:42:31;;;;;;;4.78;1.70;;;;;;;16.80;70.79;98980.22;2196702;40;20039;-76
2021/08/07 01:44:04;;;;;;;4.80;1.65;;;;;;;16.77;70.49;98986.00;2195747;40;20046;-77
2021/08/07 01:45:36;;;;;;;3.53;1.38;;;;;;;16.73;70.97;98995.56;2195925;40;20028;-76
2021/08/07 01:47:13;;;;;;;5.25;1.55;;;;;;;16.71;70.71;98989.56;2199536;40;20034;-76
2021/08/07 01:48:52;;;;;;;3.88;1.40;;;;;;;16.68;70.96;98990.78;2197322;40;20075;-76
2021/08/07 01:50:28;;;;;;;6.57;1.67;;;;;;;16.64;71.05;98986.88;2187687;40;20047;-76
2021/08/07 01:52:04;;;;;;;4.47;1.58;;;;;;;16.63;71.42;98982.50;2182839;40;20115;-76
2021/08/07 01:53:37;;;;;;;4.22;1.50;;;;;;;16.65;71.31;98975.03;2198364;40;20062;-76
2021/08/07 01:55:15;;;;;;;4.45;1.75;;;;;;;16.66;71.24;98969.44;2182203;40;20040;-76
2021/08/07 01:56:48;;;;;;;6.43;1.45;;;;;;;16.68;71.04;98967.34;2182020;40;20050;-76
2021/08/07 01:58:25;;;;;;;5.13;1.60;;;;;;;16.73;71.01;98969.41;2187651;40;20047;-76
2021/08/07 01:59:59;;;;;;;3.63;1.42;;;;;;;16.75;70.85;98963.81;2194792;40;20055;-76
2021/08/07 02:01:32;;;;;;;4.18;1.52;;;;;;;16.76;70.89;98974.41;2194565;40;20511;-77
2021/08/07 02:03:04;;;;;;;3.75;1.30;;;;;;;16.79;71.14;98979.34;2195036;40;20038;-77
2021/08/07 02:04:36;;;;;;;5.13;1.65;;;;;;;16.86;71.05;98987.44;2196273;40;20046;-76
2021/08/07 02:06:08;;;;;;;3.53;1.23;;;;;;;16.94;70.58;98971.03;2198169;40;20090;-76
2021/08/07 02:07:40;;;;;;;3.72;1.23;;;;;;;17.03;70.39;98978.91;2197008;40;20569;-76
2021/08/07 02:09:13;;;;;;;2.90;1.20;;;;;;;17.10;70.22;98971.59;2194997;40;20426;-76
2021/08/07 02:10:47;;;;;;;3.55;1.40;;;;;;;17.12;70.16;98988.44;2194663;40;20085;-77
2021/08/07 02:12:19;;;;;;;4.63;1.50;;;;;;;17.14;70.18;98989.88;2182818;40;20039;-77
2021/08/07 02:13:54;;;;;;;4.85;1.50;;;;;;;17.17;70.08;98985.94;2194523;40;20062;-76
2021/08/07 02:15:28;;;;;;;5.15;1.50;;;;;;;17.20;69.99;98988.19;2174815;41;20040;-76
2021/08/07 02:17:00;;;;;;;3.20;1.30;;;;;;;17.21;70.12;98981.75;2176699;40;20055;-76
2021/08/07 02:18:34;;;;;;;3.13;1.20;;;;;;;17.23;69.89;98978.84;2185616;40;20046;-76
2021/08/07 02:20:06;;;;;;;2.80;1.00;;;;;;;17.25;69.80;98980.28;2194859;40;20031;-76
2021/08/07 02:21:39;;;;;;;3.72;1.05;;;;;;;17.29;69.46;98967.19;2193609;40;20031;-76
2021/08/07 02:23:14;;;;;;;3.92;1.40;;;;;;;17.31;69.47;98965.09;2187683;40;20039;-77
2021/08/07 02:24:46;;;;;;;6.07;1.70;;;;;;;17.34;69.45;98961.13;2194113;40;20066;-77
2021/08/07 02:26:22;;;;;;;3.38;1.40;;;;;;;17.31;69.37;98954.28;2187202;40;20039;-76
2021/08/07 02:27:54;;;;;;;3.35;1.48;;;;;;;17.29;69.36;98951.78;2175047;40;20036;-77
2021/08/07 02:29:26;;;;;;;4.90;1.63;;;;;;;17.21;68.97;98949.34;2194306;40;20065;-77
2021/08/07 02:31:01;;;;;;;3.85;1.40;;;;;;;17.17;69.36;98948.13;2194769;40;20039;-77
2021/08/07 02:32:33;;;;;;;4.88;1.55;;;;;;;17.15;69.60;98944.81;2194378;40;20034;-77
2021/08/07 02:34:05;;;;;;;6.13;1.40;;;;;;;17.16;69.59;98941.06;2187250;40;20037;-77
2021/08/07 02:35:38;;;;;;;3.65;1.25;;;;;;;17.16;69.76;98941.06;2195491;40;20405;-77
2021/08/07 02:37:10;;;;;;;4.20;2.08;;;;;;;17.20;69.55;98946.84;2192327;40;20340;-76
2021/08/07 02:38:44;;;;;;;3.88;1.48;;;;;;;17.20;69.71;98942.28;2194767;40;20041;-76
2021/08/07 02:40:16;;;;;;;3.63;1.42;;;;;;;17.14;69.48;98943.16;2195314;40;20037;-76
2021/08/07 02:41:48;;;;;;;4.45;1.50;;;;;;;17.05;69.99;98945.25;2194031;40;20065;-76
2021/08/07 02:43:20;;;;;;;3.97;1.50;;;;;;;17.02;70.48;98937.59;2193324;40;20035;-75
2021/08/07 02:44:54;;;;;;;4.30;1.75;;;;;;;17.01;70.37;98938.63;2194851;40;20038;-76
2021/08/07 02:46:29;;;;;;;3.47;1.45;;;;;;;16.99;70.47;98941.56;2194149;40;20069;-76
2021/08/07 02:48:01;;;;;;;5.75;2.10;;;;;;;16.99;70.40;98940.72;2193935;40;20062;-77
2021/08/07 02:49:34;;;;;;;4.03;1.38;;;;;;;16.99;70.29;98935.31;2194762;40;20039;-76
2021/08/07 02:51:06;;;;;;;3.35;1.40;;;;;;;16.98;70.29;98934.50;2194220;40;20042;-77
2021/08/07 02:52:37;;;;;;;3.60;1.63;;;;;;;17.01;70.21;98941.34;2194826;40;20035;-76
2021/08/07 02:54:10;;;;;;;4.68;1.83;;;;;;;17.03;70.57;98933.00;2194143;40;20055;-77
2021/08/07 02:55:42;;;;;;;6.93;2.15;;;;;;;17.02;70.35;98934.91;2186870;40;20367;-75
2021/08/07 02:57:14;;;;;;;5.22;1.92;;;;;;;16.98;70.54;98930.94;2178776;40;20044;-76
2021/08/07 02:58:46;;;;;;;3.72;1.45;;;;;;;16.94;70.57;98927.03;2193997;40;20042;-75
2021/08/07 03:00:19;;;;;;;4.18;1.55;;;;;;;16.94;70.52;98933.25;2194729;40;20042;-76
2021/08/07 03:01:52;;;;;;;4.18;1.42;;;;;;;16.95;70.67;98926.00;2194307;40;20054;-76
2021/08/07 03:03:24;;;;;;;4.53;1.58;;;;;;;16.88;70.52;98925.16;2194368;40;20047;-76
2021/08/07 03:04:56;;;;;;;4.25;1.98;;;;;;;16.78;70.89;98923.72;2174421;41;20052;-76
2021/08/07 03:06:27;;;;;;;3.78;1.48;;;;;;;16.72;71.29;98929.16;2193921;40;20039;-76
2021/08/07 03:07:59;;;;;;;4.35;1.50;;;;;;;16.65;71.66;98931.88;2194549;40;20042;-76
2021/08/07 03:09:31;;;;;;;3.67;1.50;;;;;;;16.62;71.63;98933.13;2195932;40;20063;-75
2021/08/07 03:11:04;;;;;;;3.45;1.42;;;;;;;16.57;71.96;98932.09;2194731;40;20046;-76
2021/08/07 03:12:37;;;;;;;5.72;1.83;;;;;;;16.53;71.96;98939.78;2191117;40;20058;-76
2021/08/07 03:14:10;;;;;;;5.40;1.70;;;;;;;16.47;72.08;98937.91;2191510;40;20055;-76
2021/08/07 03:15:42;;;;;;;5.15;1.83;;;;;;;16.43;72.19;98942.09;2194505;40;20426;-75
2021/08/07 03:17:15;;;;;;;5.60;1.77;;;;;;;16.41;72.34;98942.28;2194509;40;20090;-76
2021/08/07 03:18:47;;;;;;;3.58;1.42;;;;;;;16.45;72.66;98938.16;2194364;40;20039;-76
2021/08/07 03:20:19;;;;;;;5.15;1.65;;;;;;;16.53;72.17;98937.09;2194107;40;20038;-76
2021/08/07 03:21:51;;;;;;;5.13;1.73;;;;;;;16.57;72.02;98930.22;2196298;40;20034;-76
2021/08/07 03:23:23;;;;;;;3.33;1.50;;;;;;;16.61;72.34;98923.38;2198445;40;20415;-75
2021/08/07 03:24:55;;;;;;;3.35;1.58;;;;;;;16.65;72.00;98923.78;2194857;40;20046;-75
2021/08/07 03:26:26;;;;;;;5.53;1.80;;;;;;;16.66;72.16;98920.84;2195738;40;20042;-76
2021/08/07 03:27:58;;;;;;;4.68;1.60;;;;;;;16.70;71.81;98921.25;2195121;40;20039;-75
2021/08/07 03:29:30;;;;;;;6.78;1.83;;;;;;;16.69;72.10;98928.53;2195489;40;20042;-76
2021/08/07 03:31:02;;;;;;;5.88;1.63;;;;;;;16.69;72.16;98928.53;2195113;40;20047;-75
2021/08/07 03:32:35;;;;;;;4.15;1.50;;;;;;;16.66;72.06;98928.13;2195460;40;20420;-75
2021/08/07 03:34:07;;;;;;;4.10;1.70;;;;;;;16.64;72.38;98938.31;2195488;40;20062;-75
2021/08/07 03:35:39;;;;;;;5.55;1.65;;;;;;;16.65;72.06;98929.19;2195302;40;20031;-76
2021/08/07 03:37:11;;;;;;;4.07;1.90;;;;;;;16.65;72.06;98929.19;2195089;40;20124;-77
2021/08/07 03:38:43;;;;;;;5.15;1.83;;;;;;;16.65;72.29;98945.38;2194184;40;20041;-76
2021/08/07 03:40:16;;;;;;;5.38;1.60;;;;;;;16.66;72.17;98937.06;2194745;40;20391;-76
2021/08/07 03:41:48;;;;;;;5.85;2.20;;;;;;;16.66;72.10;98942.44;2193666;40;20035;-76
2021/08/07 03:43:20;;;;;;;3.90;1.60;;;;;;;16.67;72.13;98932.50;2195892;40;20043;-76
2021/08/07 03:44:52;;;;;;;5.85;1.40;;;;;;;16.68;72.13;98923.34;2196233;40;20035;-76
2021/08/07 03:46:24;;;;;;;3.53;1.50;;;;;;;16.71;72.01;98922.94;2192846;40;20387;-76
2021/08/07 03:47:57;;;;;;;3.65;1.70;;;;;;;16.76;71.67;98916.88;2195515;40;20027;-75
2021/08/07 03:49:29;;;;;;;6.63;1.80;;;;;;;16.81;71.54;98914.41;2195480;40;20039;-75
2021/08/07 03:51:00;;;;;;;6.00;1.77;;;;;;;16.82;71.67;98914.16;2195133;40;20065;-76
2021/08/07 03:52:34;;;;;;;4.03;1.65;;;;;;;16.81;71.79;98909.00;2197132;40;20041;-76
2021/08/07 03:54:06;;;;;;;4.78;1.80;;;;;;;16.86;71.53;98903.78;2197212;40;20049;-76
2021/08/07 03:55:37;;;;;;;4.78;1.70;;;;;;;16.90;71.54;98904.19;2194909;40;20124;-76
2021/08/07 03:57:09;;;;;;;4.60;1.60;;;;;;;16.93;71.20;98906.47;2195651;40;20043;-76
2021/08/07 03:58:41;;;;;;;4.82;1.70;;;;;;;16.94;71.13;98910.84;2195195;40;20065;-77
2021/08/07 04:00:12;;;;;;;4.05;1.52;;;;;;;16.95;71.25;98912.50;2189578;40;20043;-75
2021/08/07 04:01:44;;;;;;;4.00;1.65;;;;;;;16.97;71.11;98915.78;2193889;40;20043;-76
2021/08/07 04:03:17;;;;;;;6.03;1.58;;;;;;;16.95;70.99;98913.31;2195443;40;20043;-76
2021/08/07 04:04:49;;;;;;;4.22;1.85;;;;;;;16.93;71.09;98918.09;2195452;40;20736;-75
2021/08/07 04:06:21;;;;;;;3.55;1.60;;;;;;;16.94;71.07;98908.97;2195159;40;20031;-76
2021/08/07 04:07:53;;;;;;;5.13;1.75;;;;;;;16.96;71.28;98909.59;2197111;40;20042;-75
2021/08/07 04:09:24;;;;;;;6.10;2.03;;;;;;;16.93;71.63;98912.69;2196734;40;20050;-76
2021/08/07 04:10:56;;;;;;;5.40;1.92;;;;;;;16.94;72.11;98903.56;2196055;40;20408;-76
2021/08/07 04:12:28;;;;;;;5.43;1.70;;;;;;;16.96;72.30;98897.94;2194678;40;20041;-76
2021/08/07 04:14:00;;;;;;;5.00;1.77;;;;;;;16.99;72.08;98900.22;2181918;40;20044;-76
2021/08/07 04:15:32;;;;;;;4.28;1.70;;;;;;;16.96;72.47;98898.78;2194261;40;20027;-76
2021/08/07 04:17:04;;;;;;;5.50;1.75;;;;;;;16.98;72.84;98895.84;2195456;40;20046;-78
2021/08/07 04:18:38;;;;;;;4.88;1.83;;;;;;;17.01;72.57;98908.94;2194327;40;20050;-78
2021/08/07 04:20:12;;;;;;;6.63;2.13;;;;;;;17.04;72.92;98903.13;2196440;40;20041;-80
2021/08/07 04:21:43;;;;;;;4.78;1.67;;;;;;;17.03;73.10;98904.16;2196463;40;20034;-80
2021/08/07 04:23:15;;;;;;;4.22;1.90;;;;;;;17.05;73.24;98901.22;2197153;40;20046;-79
2021/08/07 04:24:47;;;;;;;12.10;1.88;;;;;;;17.06;73.45;98897.50;2197149;40;20039;-79
2021/08/07 04:26:19;;;;;;;6.20;2.88;;;;;;;17.06;73.42;98903.72;2196874;40;20038;-80
2021/08/07 04:27:54;;;;;;;4.95;1.92;;;;;;;17.08;73.20;98907.03;2196696;40;20039;-81
2021/08/07 04:29:26;;;;;;;6.65;2.30;;;;;;;17.05;73.25;98906.63;2194352;40;20311;-79
2021/08/07 04:30:58;;;;;;;5.28;1.73;;;;;;;17.05;73.58;98912.03;2197058;40;20031;-79
2021/08/07 04:32:30;;;;;;;5.50;1.83;;;;;;;17.05;73.59;98906.63;2196083;40;20576;-79
2021/08/07 04:34:03;;;;;;;4.68;1.55;;;;;;;17.09;73.30;98907.88;2197502;40;20062;-79
2021/08/07 04:35:35;;;;;;;4.88;1.70;;;;;;;17.12;73.01;98907.41;2197141;40;20039;-79
2021/08/07 04:37:07;;;;;;;3.22;1.50;;;;;;;17.14;73.02;98905.34;2196967;40;20426;-80
2021/08/07 04:38:39;;;;;;;5.43;2.45;;;;;;;17.15;72.85;98907.81;2196873;40;20035;-79
2021/08/07 04:40:11;;;;;;;5.43;1.90;;;;;;;17.14;73.31;98897.25;2197502;40;20027;-80
2021/08/07 04:41:43;;;;;;;6.00;2.00;;;;;;;17.09;73.55;98899.78;2196808;40;20043;-80
2021/08/07 04:43:15;;;;;;;4.95;2.35;;;;;;;17.06;73.66;98892.09;2196740;40;20039;-79
2021/08/07 04:44:47;;;;;;;6.45;1.83;;;;;;;17.04;73.57;98889.63;2197494;40;20046;-80
2021/08/07 04:46:19;;;;;;;6.05;1.60;;;;;;;17.00;73.69;98891.91;2197467;40;20045;-79
2021/08/07 04:47:56;;;;;;;4.95;1.80;;;;;;;17.01;73.71;98887.34;2196989;40;20035;-79
2021/08/07 04:49:29;;;;;;;6.28;2.50;;;;;;;17.06;73.57;98886.69;2191036;40;20352;-79
2021/08/07 04:51:01;;;;;;;5.43;2.30;;;;;;;17.07;73.57;98889.16;2191288;40;20044;-79
2021/08/07 04:52:33;;;;;;;6.13;2.80;;;;;;;17.08;73.72;98887.31;2197705;40;20046;-79
2021/08/07 04:54:05;;;;;;;4.90;2.45;;;;;;;17.10;73.48;98885.22;2197098;40;20411;-81
2021/08/07 04:55:37;;;;;;;5.30;2.40;;;;;;;17.12;73.48;98892.06;2201175;40;20046;-79
2021/08/07 04:57:09;;;;;;;5.93;2.08;;;;;;;17.14;73.70;98881.84;2197208;40;20043;-79
2021/08/07 04:58:40;;;;;;;4.85;2.20;;;;;;;17.15;73.49;98888.09;2198795;40;20446;-81
2021/08/07 05:00:14;;;;;;;11.43;3.05;;;;;;;17.16;73.47;98881.66;2199264;40;20445;-80
2021/08/07 05:01:46;;;;;;;7.78;2.00;;;;;;;17.10;73.78;98877.94;2200068;40;20356;-80
2021/08/07 05:03:17;;;;;;;11.07;2.30;;;;;;;17.11;73.81;98884.16;2193699;40;20051;-79
2021/08/07 05:04:51;;;;;;;8.90;2.33;;;;;;;17.07;74.07;98886.47;2193791;40;20411;-81
2021/08/07 05:06:22;;;;;;;9.38;1.90;;;;;;;17.09;73.80;98895.19;2194114;40;20340;-81
2021/08/07 05:07:55;;;;;;;5.38;1.98;;;;;;;17.11;73.59;98894.97;2193533;40;20035;-80
2021/08/07 05:09:27;;;;;;;6.47;1.88;;;;;;;17.08;73.68;98900.81;2194376;40;20046;-81
2021/08/07 05:10:59;;;;;;;10.63;2.63;;;;;;;17.15;73.53;98893.50;2194651;40;20023;-82
2021/08/07 05:12:31;;;;;;;6.53;1.98;;;;;;;17.18;73.37;98898.47;2194013;40;20031;-80
2021/08/07 05:14:04;;;;;;;7.38;2.20;;;;;;;17.17;73.43;98904.91;2193500;40;20030;-84
2021/08/07 05:15:36;;;;;;;5.22;2.10;;;;;;;17.17;73.33;98898.69;2193435;40;20034;-81
2021/08/07 05:17:10;;;;;;;5.88;2.05;;;;;;;17.09;73.84;98903.28;2194579;40;20384;-81
2021/08/07 05:18:42;;;;;;;5.25;1.90;;;;;;;17.09;73.96;98906.00;2192896;40;20043;-80
2021/08/07 05:20:16;;;;;;;5.25;2.15;;;;;;;17.12;73.69;98897.47;2192768;40;20042;-81
2021/08/07 05:21:48;;;;;;;6.30;2.30;;;;;;;17.15;73.74;98896.19;2194496;40;20042;-82
2021/08/07 05:23:20;;;;;;;6.07;2.20;;;;;;;17.16;73.29;98897.84;2194038;40;20041;-79
2021/08/07 05:24:52;;;;;;;6.13;2.58;;;;;;;17.19;73.17;98902.00;2198954;40;20038;-81
2021/08/07 05:26:24;;;;;;;5.00;1.65;;;;;;;17.21;73.15;98900.72;2201295;40;20035;-79
2021/08/07 05:27:56;;;;;;;4.97;1.85;;;;;;;17.27;72.80;98902.59;2202003;40;20527;-79
2021/08/07 05:29:27;;;;;;;6.15;1.80;;;;;;;17.30;72.73;98902.13;2201800;40;20203;-80
2021/08/07 05:30:59;;;;;;;7.03;2.70;;;;;;;17.34;72.63;98894.41;2201706;40;20042;-80
2021/08/07 05:32:31;;;;;;;4.65;2.58;;;;;;;17.36;72.51;98897.72;2203668;40;20023;-80
2021/08/07 05:34:03;;;;;;;6.85;2.90;;;;;;;17.41;72.56;98895.22;2203792;40;20038;-80
2021/08/07 05:35:36;;;;;;;6.45;2.42;;;;;;;17.49;72.36;98896.00;2203767;40;20031;-79
2021/08/07 05:37:08;;;;;;;6.97;2.28;;;;;;;17.50;72.34;98897.66;2202805;40;20047;-78
2021/08/07 05:38:40;;;;;;;4.50;1.83;;;;;;;17.55;72.32;98895.97;2206041;40;20069;-78
2021/08/07 05:40:13;;;;;;;4.88;2.00;;;;;;;17.59;71.95;98896.34;2205297;40;20031;-77
2021/08/07 05:41:45;;;;;;;7.32;2.20;;;;;;;17.54;71.58;98891.59;2198727;40;20058;-80
2021/08/07 05:43:17;;;;;;;5.55;2.63;;;;;;;17.54;71.56;98897.00;2197246;40;20042;-79
2021/08/07 05:44:54;;;;;;;5.45;2.30;;;;;;;17.55;71.32;98887.88;2204734;40;20046;-80
2021/08/07 05:46:26;;;;;;;5.65;2.28;;;;;;;17.56;71.05;98881.41;2199884;40;20035;-79
2021/08/07 05:47:58;;;;;;;4.90;2.13;;;;;;;17.58;71.20;98879.28;2203920;40;20034;-79
2021/08/07 05:49:30;;;;;;;10.02;2.40;;;;;;;17.61;70.78;98878.06;2202428;40;20166;-80
2021/08/07 05:51:04;;;;;;;8.88;2.60;;;;;;;17.64;71.22;98876.78;2199737;40;21588;-80
2021/08/07 05:52:36;;;;;;;9.27;2.85;;;;;;;17.59;71.34;98874.75;2195511;40;20051;-76
2021/08/07 05:54:08;;;;;;;6.72;2.15;;;;;;;17.61;71.36;98884.28;2199406;40;20603;-78
2021/08/07 05:55:41;;;;;;;7.85;1.90;;;;;;;17.68;71.17;98880.69;2196859;40;20069;-81
2021/08/07 05:57:13;;;;;;;5.50;2.33;;;;;;;17.74;71.14;98885.22;2198770;40;20043;-77
2021/08/07 05:58:45;;;;;;;6.72;1.77;;;;;;;17.81;70.90;98877.03;2196331;40;20296;-79
2021/08/07 06:00:17;;;;;;;5.47;2.50;;;;;;;17.84;70.84;98877.47;2196167;40;20038;-78
2021/08/07 06:01:49;;;;;;;5.43;2.30;;;;;;;17.88;70.66;98873.25;2195609;40;20043;-77
2021/08/07 06:03:20;;;;;;;7.95;2.80;;;;;;;17.92;70.51;98877.19;2194121;40;20059;-77
2021/08/07 06:04:52;;;;;;;5.65;2.60;;;;;;;17.96;70.18;98874.00;2197509;40;20035;-79
2021/08/07 06:06:25;;;;;;;9.23;2.40;;;;;;;18.01;69.71;98888.56;2196890;40;20046;-79
2021/08/07 06:07:56;;;;;;;5.78;2.05;;;;;;;18.01;69.75;98885.84;2196849;40;20394;-78
2021/08/07 06:09:28;;;;;;;4.63;1.95;;;;;;;18.05;69.44;98881.66;2195277;40;20058;-78
2021/08/07 06:11:00;;;;;;;4.40;2.22;;;;;;;18.09;69.11;98887.44;2197293;40;20027;-78
2021/08/07 06:12:32;;;;;;;5.57;2.22;;;;;;;18.17;68.79;98889.88;2197961;40;20055;-77
2021/08/07 06:14:04;;;;;;;4.93;1.95;;;;;;;18.19;68.67;98886.94;2195908;40;20057;-78
2021/08/07 06:15:36;;;;;;;6.32;2.03;;;;;;;18.16;68.56;98880.09;2195881;40;20035;-79
2021/08/07 06:17:08;;;;;;;4.40;1.77;;;;;;;18.14;68.64;98873.25;2197434;40;20039;-77
2021/08/07 06:18:39;;;;;;;5.53;2.42;;;;;;;18.13;68.38;98869.75;2201341;40;20034;-79
2021/08/07 06:20:13;;;;;;;5.13;2.08;;;;;;;18.10;68.57;98862.06;2198178;40;20429;-82
2021/08/07 06:21:46;;;;;;;4.90;2.25;;;;;;;18.07;68.80;98870.63;2197852;40;20039;-81
2021/08/07 06:23:23;;;;;;;3.95;1.48;;;;;;;18.11;68.52;98869.13;2198493;40;20035;-78
2021/08/07 06:25:13;;;;;;;5.65;2.63;;;;;;;18.19;68.59;98871.53;2185609;40;20039;-82
2021/08/07 06:26:54;;;;;;;6.38;3.33;;;;;;;18.33;68.20;98883.06;2198688;40;21832;-81
2021/08/07 06:28:27;;;;;;;7.93;2.42;;;;;;;18.43;67.93;98879.81;2199005;40;20046;-82
2021/08/07 06:30:02;;;;;;;5.38;1.90;;;;;;;18.45;67.46;98871.50;2198302;40;20083;-81
2021/08/07 06:31:34;;;;;;;5.88;2.28;;;;;;;18.52;67.21;98880.34;2198484;40;20042;-81
2021/08/07 06:33:05;;;;;;;4.75;1.50;;;;;;;18.64;66.96;98880.44;2199439;40;20046;-80
2021/08/07 06:34:37;;;;;;;5.00;1.85;;;;;;;18.80;66.21;98879.81;2196466;40;20038;-79
2021/08/07 06:36:09;;;;;;;3.22;1.23;;;;;;;18.88;66.00;98880.56;2194322;40;20095;-79
2021/08/07 06:37:43;;;;;;;4.53;1.27;;;;;;;18.98;65.72;98876.28;2193329;40;20054;-78
2021/08/07 06:39:15;;;;;;;3.35;1.20;;;;;;;19.01;65.36;98869.59;2194809;40;20031;-80
2021/08/07 06:40:46;;;;;;;5.40;1.60;;;;;;;19.09;65.04;98860.31;2198329;40;20498;-80
2021/08/07 06:42:18;;;;;;;3.88;1.63;;;;;;;19.16;64.44;98861.91;2199185;40;20030;-80
2021/08/07 06:43:50;;;;;;;4.13;1.33;;;;;;;19.18;64.47;98858.94;2188058;40;134130;-80
2021/08/07 06:45:23;;;;;;;4.18;1.25;;;;;;;19.22;64.26;98860.16;2198570;40;20046;-80
2021/08/07 06:46:58;;;;;;;3.70;1.40;;;;;;;19.30;63.67;98869.81;2197772;40;20052;-80
2021/08/07 06:48:29;;;;;;;4.03;1.30;;;;;;;19.36;63.52;98860.78;2197744;40;20062;-78
2021/08/07 06:50:02;;;;;;;3.90;1.20;;;;;;;19.42;63.06;98864.41;2197225;40;20326;-80
2021/08/07 06:51:34;;;;;;;4.38;1.30;;;;;;;19.42;62.81;98851.72;2197351;40;20358;-79
2021/08/07 06:53:07;;;;;;;3.55;1.23;;;;;;;19.46;62.21;98850.19;2197324;40;20042;-79
2021/08/07 06:54:39;;;;;;;4.70;1.40;;;;;;;19.44;62.22;98857.75;2197886;40;20050;-78
2021/08/07 06:56:11;;;;;;;3.53;1.20;;;;;;;19.48;62.03;98848.06;2194723;40;20400;-79
2021/08/07 06:57:43;;;;;;;4.40;1.20;;;;;;;19.54;61.79;98856.34;2194888;40;20050;-77
2021/08/07 06:59:14;;;;;;;3.90;1.35;;;;;;;19.60;61.59;98858.13;2193696;40;20519;-78
2021/08/07 07:00:47;;;;;;;6.22;1.70;;;;;;;19.64;61.47;98864.72;2195902;40;20315;-80
2021/08/07 07:02:19;;;;;;;4.18;1.30;;;;;;;19.71;61.51;98862.72;2195459;40;20339;-79
2021/08/07 07:03:50;;;;;;;4.75;1.42;;;;;;;19.78;61.17;98863.44;2194359;40;20067;-79
2021/08/07 07:05:22;;;;;;;4.53;1.15;;;;;;;19.87;60.85;98849.56;2195570;40;20047;-79
2021/08/07 07:06:54;;;;;;;3.03;1.13;;;;;;;19.99;60.40;98847.69;2195327;40;20537;-78
2021/08/07 07:08:29;;;;;;;3.70;1.23;;;;;;;20.11;60.22;98847.69;2195720;40;20066;-78
2021/08/07 07:10:00;;;;;;;3.90;1.33;;;;;;;20.24;59.76;98850.16;2195331;40;20073;-78
2021/08/07 07:11:32;;;;;;;3.42;1.30;;;;;;;20.33;59.42;98841.66;2195432;40;20031;-79
2021/08/07 07:13:04;;;;;;;3.33;1.23;;;;;;;20.41;58.95;98844.00;2195868;40;20027;-78
2021/08/07 07:14:36;;;;;;;3.90;1.50;;;;;;;20.46;58.67;98835.13;2195736;40;20034;-78
2021/08/07 07:16:08;;;;;;;3.75;1.35;;;;;;;20.53;58.52;98833.09;2195354;40;20070;-78
2021/08/07 07:17:39;;;;;;;6.15;1.85;;;;;;;20.60;58.21;98825.66;2196086;40;20034;-77